Edgbaston, United Kingdom

1:45 PM GMT on December 06, 2016 (GMT +0000)
Edgbaston | | Change Station

Elev 525 ft 52.48 °N, 1.94 °W | Updated 23 minutes ago

Fog
Fog
44.1 °F
Feels Like 44 °F
N
0.0
Wind Variable Wind from South
Gusts 6.0 mph

Today
High -- | Low -- °F
--% Chance of Precip.
Yesterday
High -- | Low -- °F
Precip. -- in
Pressure 30.27 in
Visibility 0.4 miles
Clouds
Windchill 44 °F
Dew Point 42 °F
Humidity 94%
Rainfall 0.00 in
Snow Depth Not available.
8:02 AM 3:54 PM
Waxing Crescent, 42% visible
METAR EGBB 061320Z 16006KT 0700 R15/P1500 FG VV/// 06/06 Q1025
Pressure 30.27 in
Visibility 0.4 miles
Clouds
Windchill 44 °F
Dew Point 42 °F
Humidity 94%
Rainfall 0.00 in
Snow Depth Not available.
8:02 AM 3:54 PM
Waxing Crescent, 42% visible
METAR EGBB 061320Z 16006KT 0700 R15/P1500 FG VV/// 06/06 Q1025

10-Day Weather Forecast

×

Almanac

Astronomy

Dec. 06, 2016 Rise Set
Actual Time
Civil Twilight
Nautical Twilight
Astronomical Twilight
Moon
Length of Visible Light
Length of Day
Tomorrow will be .
, % of the Moon is Illuminated

Today's Extremes

Country Highs Country Lows

Community

WunderPhotos

Upload Photos

1,955,944 photos uploaded!

WunderBlog® & News

Nearby

Air Quality

  Air Quality AQ Index Pollutant
Not available.

Snow Depth

Station Depth Elevation

Earthquake Activity

City Distance Mag. Time & Date
Minimum magnitude displayed is 2.5.

Coastal Water Temperatures

Place Temperature

Stations

Nearby Weather Stations

Station Location Temp. Windchill Dew Point Humidity Wind Precip. Elev Updated Type